Time;durP1;ratioP1;P1;durP2;ratioP2;P2;SDS_P1;SDS_P2;PMS_P1;PMS_P2;Temp;Humidity;BMP_temperature;BMP_pressure;BME280_temperature;BME280_humidity;BME280_pressure;Samples;Min_cycle;Max_cycle;Signal;HPM_P1;HPM_P2
2023/05/28 00:01:20;;;;;;;59.37;2.80;;;;;;;;;;5074382;28;20872;-70
2023/05/28 00:03:47;;;;;;;57.53;2.57;;;;;;;;;;5074286;28;20981;-70
2023/05/28 00:06:14;;;;;;;57.57;2.53;;;;;;;;;;5074469;28;20458;-69
2023/05/28 00:08:43;;;;;;;58.53;3.33;;;;;;;;;;5073809;28;20454;-69
2023/05/28 00:11:10;;;;;;;57.60;2.70;;;;;;;;;;5074262;28;20473;-70
2023/05/28 00:13:37;;;;;;;57.77;3.03;;;;;;;;;;5074202;28;20482;-70
2023/05/28 00:16:04;;;;;;;58.40;4.00;;;;;;;;;;5074358;28;20912;-70
2023/05/28 00:18:31;;;;;;;57.47;2.70;;;;;;;;;;5073596;28;20475;-70
2023/05/28 00:20:58;;;;;;;57.80;3.20;;;;;;;;;;5074080;28;20803;-70
2023/05/28 00:23:25;;;;;;;57.50;2.60;;;;;;;;;;5074027;28;20447;-70
2023/05/28 00:25:54;;;;;;;59.10;2.70;;;;;;;;;;5073964;28;20432;-70
2023/05/28 00:28:21;;;;;;;57.80;2.97;;;;;;;;;;5074149;28;20458;-70
2023/05/28 00:30:48;;;;;;;57.47;2.67;;;;;;;;;;5073404;28;20530;-70
2023/05/28 00:33:15;;;;;;;57.37;2.60;;;;;;;;;;5074074;28;20452;-70
2023/05/28 00:35:42;;;;;;;58.37;2.73;;;;;;;;;;5073461;28;20451;-70
2023/05/28 00:38:09;;;;;;;58.50;2.60;;;;;;;;;;5073929;28;20483;-70
2023/05/28 00:40:36;;;;;;;63.50;4.23;;;;;;;;;;5073178;28;20486;-70
2023/05/28 00:43:05;;;;;;;57.77;3.10;;;;;;;;;;5073786;28;20477;-70
2023/05/28 00:45:32;;;;;;;60.17;3.90;;;;;;;;;;5073544;28;20447;-70
2023/05/28 00:47:59;;;;;;;60.53;4.23;;;;;;;;;;5073327;28;20448;-70
2023/05/28 00:50:28;;;;;;;58.30;3.10;;;;;;;;;;5072942;28;20898;-70
2023/05/28 00:52:55;;;;;;;57.80;3.60;;;;;;;;;;5073542;28;20485;-70
2023/05/28 00:55:22;;;;;;;57.27;2.47;;;;;;;;;;5073305;28;20443;-70
2023/05/28 00:57:54;;;;;;;57.60;3.00;;;;;;;;;;5073468;28;20483;-70
2023/05/28 01:00:23;;;;;;;57.37;2.50;;;;;;;;;;5073228;28;20473;-70
2023/05/28 01:02:50;;;;;;;57.67;2.57;;;;;;;;;;5073342;28;20482;-70
2023/05/28 01:05:18;;;;;;;58.37;3.20;;;;;;;;;;5073069;28;20447;-70
2023/05/28 01:07:45;;;;;;;58.47;2.60;;;;;;;;;;5073419;28;20443;-70
2023/05/28 01:10:12;;;;;;;57.50;2.30;;;;;;;;;;5072575;28;20542;-70
2023/05/28 01:12:39;;;;;;;57.90;3.27;;;;;;;;;;5072983;28;20821;-70
2023/05/28 01:15:07;;;;;;;57.67;3.67;;;;;;;;;;5072774;28;20457;-70
2023/05/28 01:17:38;;;;;;;59.47;2.93;;;;;;;;;;5072864;28;20479;-70
2023/05/28 01:20:10;;;;;;;57.40;2.60;;;;;;;;;;5072381;28;20481;-70
2023/05/28 01:22:39;;;;;;;57.40;2.60;;;;;;;;;;5072727;28;20474;-70
2023/05/28 01:25:09;;;;;;;57.47;2.60;;;;;;;;;;5072681;28;20505;-70
2023/05/28 01:27:37;;;;;;;58.60;3.23;;;;;;;;;;5072785;28;20443;-70
2023/05/28 01:30:07;;;;;;;57.67;3.13;;;;;;;;;;5072111;28;20451;-70
2023/05/28 01:32:34;;;;;;;57.80;2.90;;;;;;;;;;5072560;28;20558;-70
2023/05/28 01:35:01;;;;;;;57.70;3.00;;;;;;;;;;5069376;28;20451;-69
2023/05/28 01:37:29;;;;;;;57.90;3.07;;;;;;;;;;5072343;28;20447;-70
2023/05/28 01:39:56;;;;;;;60.60;2.80;;;;;;;;;;5072131;28;20443;-70
2023/05/28 01:42:25;;;;;;;58.60;3.33;;;;;;;;;;5072588;28;20503;-69
2023/05/28 01:44:53;;;;;;;57.70;2.70;;;;;;;;;;5072349;28;20955;-70
2023/05/28 01:47:20;;;;;;;57.53;2.80;;;;;;;;;;5071693;28;20454;-70
2023/05/28 01:49:47;;;;;;;57.67;3.37;;;;;;;;;;5071826;28;20440;-70
2023/05/28 01:52:14;;;;;;;61.57;3.70;;;;;;;;;;5072557;28;20471;-70
2023/05/28 01:54:41;;;;;;;57.43;3.10;;;;;;;;;;5072422;28;20443;-70
2023/05/28 01:57:08;;;;;;;57.47;2.70;;;;;;;;;;5072059;28;20958;-69
2023/05/28 01:59:37;;;;;;;57.70;2.80;;;;;;;;;;5071371;28;20487;-70
2023/05/28 02:02:05;;;;;;;57.90;3.37;;;;;;;;;;5071963;28;20478;-70
2023/05/28 02:04:32;;;;;;;62.30;3.43;;;;;;;;;;5071953;28;20455;-69
2023/05/28 02:06:59;;;;;;;57.57;3.00;;;;;;;;;;5071918;28;20447;-70
2023/05/28 02:09:26;;;;;;;57.70;2.93;;;;;;;;;;5071306;28;21042;-70
2023/05/28 02:11:53;;;;;;;57.53;2.90;;;;;;;;;;5071997;28;20467;-70
2023/05/28 02:14:20;;;;;;;58.37;3.27;;;;;;;;;;5072077;28;20443;-70
2023/05/28 02:16:49;;;;;;;57.70;3.00;;;;;;;;;;5071774;28;20458;-69
2023/05/28 02:19:17;;;;;;;57.80;2.80;;;;;;;;;;5070753;28;20509;-70
2023/05/28 02:21:44;;;;;;;57.77;3.10;;;;;;;;;;5071911;28;20838;-70
2023/05/28 02:24:11;;;;;;;57.53;2.67;;;;;;;;;;5071784;28;20463;-70
2023/05/28 02:26:38;;;;;;;57.83;3.00;;;;;;;;;;5071529;28;20944;-70
2023/05/28 02:29:06;;;;;;;57.57;2.50;;;;;;;;;;5071374;28;20440;-70
2023/05/28 02:31:33;;;;;;;57.90;3.00;;;;;;;;;;5071326;28;20471;-69
2023/05/28 02:34:01;;;;;;;57.70;2.90;;;;;;;;;;5071690;28;20447;-70
2023/05/28 02:36:29;;;;;;;58.10;3.07;;;;;;;;;;5071754;28;20454;-69
2023/05/28 02:38:57;;;;;;;58.50;2.90;;;;;;;;;;5071131;28;20472;-69
2023/05/28 02:41:24;;;;;;;58.93;2.97;;;;;;;;;;5071334;28;20468;-69
2023/05/28 02:43:51;;;;;;;57.27;2.40;;;;;;;;;;5071690;28;20451;-70
2023/05/28 02:46:18;;;;;;;57.80;2.70;;;;;;;;;;5071527;28;20450;-70
2023/05/28 02:48:45;;;;;;;57.47;2.57;;;;;;;;;;5070772;28;20839;-69
2023/05/28 02:51:14;;;;;;;57.50;2.40;;;;;;;;;;5071528;28;20475;-70
2023/05/28 02:53:41;;;;;;;57.77;3.17;;;;;;;;;;5071312;28;20481;-69
2023/05/28 02:56:08;;;;;;;57.70;2.60;;;;;;;;;;5071307;28;20450;-69
2023/05/28 02:58:36;;;;;;;57.70;2.90;;;;;;;;;;5069407;28;21003;-69
2023/05/28 03:01:03;;;;;;;57.60;2.50;;;;;;;;;;5071273;28;20444;-70
2023/05/28 03:03:31;;;;;;;57.60;2.60;;;;;;;;;;5071363;28;20449;-69
2023/05/28 03:05:58;;;;;;;59.70;5.00;;;;;;;;;;5071018;28;20465;-69
2023/05/28 03:08:26;;;;;;;57.50;2.60;;;;;;;;;;5071003;28;20445;-70
2023/05/28 03:10:53;;;;;;;58.87;3.73;;;;;;;;;;5070402;28;20448;-69
2023/05/28 03:13:20;;;;;;;58.20;3.83;;;;;;;;;;5070881;28;20455;-69
2023/05/28 03:15:47;;;;;;;57.47;2.53;;;;;;;;;;5071176;28;20451;-69
2023/05/28 03:18:15;;;;;;;62.43;5.90;;;;;;;;;;5071050;28;20447;-70
2023/05/28 03:20:42;;;;;;;57.47;2.57;;;;;;;;;;5070308;28;20546;-70
2023/05/28 03:23:09;;;;;;;57.90;3.20;;;;;;;;;;5070799;28;20469;-69
2023/05/28 03:25:37;;;;;;;57.43;2.60;;;;;;;;;;5071188;28;20439;-70
2023/05/28 03:28:05;;;;;;;57.70;3.00;;;;;;;;;;5071148;28;20470;-69
2023/05/28 03:30:32;;;;;;;58.20;3.20;;;;;;;;;;5070346;28;20874;-69
2023/05/28 03:32:59;;;;;;;57.80;3.30;;;;;;;;;;5071110;28;20463;-70
2023/05/28 03:35:26;;;;;;;57.50;2.83;;;;;;;;;;5070957;28;20455;-70
2023/05/28 03:37:53;;;;;;;57.77;3.17;;;;;;;;;;5071019;28;20457;-70
2023/05/28 03:40:20;;;;;;;58.47;3.60;;;;;;;;;;5069915;28;20574;-69
2023/05/28 03:42:49;;;;;;;58.00;3.70;;;;;;;;;;5070912;28;20475;-70
2023/05/28 03:45:16;;;;;;;57.60;3.37;;;;;;;;;;5070998;28;20537;-70
2023/05/28 03:47:43;;;;;;;58.00;3.80;;;;;;;;;;5070827;28;20504;-69
2023/05/28 03:50:11;;;;;;;58.00;3.13;;;;;;;;;;5069850;28;20960;-70
2023/05/28 03:52:38;;;;;;;57.43;2.90;;;;;;;;;;5070795;28;20475;-70
2023/05/28 03:55:06;;;;;;;57.70;3.00;;;;;;;;;;5070928;28;20811;-69
2023/05/28 03:57:33;;;;;;;57.43;2.80;;;;;;;;;;5070564;28;20955;-69
2023/05/28 04:00:03;;;;;;;57.33;2.70;;;;;;;;;;5069879;28;20483;-69
2023/05/28 04:02:30;;;;;;;58.10;3.67;;;;;;;;;;5070822;28;20566;-69
2023/05/28 04:04:57;;;;;;;57.87;3.13;;;;;;;;;;5070828;28;20822;-70
2023/05/28 04:07:25;;;;;;;58.00;3.30;;;;;;;;;;5070668;28;20454;-70
2023/05/28 04:09:52;;;;;;;57.50;2.97;;;;;;;;;;5071349;28;20462;-70
2023/05/28 04:12:19;;;;;;;58.20;3.70;;;;;;;;;;5074328;28;20482;-70
2023/05/28 04:14:46;;;;;;;57.60;2.80;;;;;;;;;;5074093;28;20454;-70
2023/05/28 04:17:15;;;;;;;58.67;3.60;;;;;;;;;;5074577;28;20477;-70
2023/05/28 04:19:42;;;;;;;57.47;3.07;;;;;;;;;;5073188;28;20489;-70
2023/05/28 04:22:09;;;;;;;57.33;3.07;;;;;;;;;;5073713;28;20482;-70
2023/05/28 04:24:36;;;;;;;58.10;3.40;;;;;;;;;;5073926;28;20553;-70
2023/05/28 04:27:03;;;;;;;57.50;2.80;;;;;;;;;;5073903;28;20451;-70
2023/05/28 04:29:30;;;;;;;58.00;2.97;;;;;;;;;;5073195;28;20462;-70
2023/05/28 04:31:58;;;;;;;58.27;3.40;;;;;;;;;;5073963;28;20471;-70
2023/05/28 04:34:27;;;;;;;59.50;3.60;;;;;;;;;;5073769;28;20443;-69
2023/05/28 04:36:56;;;;;;;57.97;3.70;;;;;;;;;;5073837;28;20455;-70
2023/05/28 04:39:24;;;;;;;59.07;3.97;;;;;;;;;;5073060;28;20581;-70
2023/05/28 04:41:53;;;;;;;57.60;2.90;;;;;;;;;;5073557;28;20471;-70
2023/05/28 04:44:20;;;;;;;57.87;2.97;;;;;;;;;;5073667;28;20540;-70
2023/05/28 04:46:48;;;;;;;58.10;3.20;;;;;;;;;;5073605;28;20443;-70
2023/05/28 04:49:15;;;;;;;57.57;2.57;;;;;;;;;;5072633;28;20980;-70
2023/05/28 04:51:43;;;;;;;57.60;2.60;;;;;;;;;;5073316;28;20668;-70
2023/05/28 04:54:10;;;;;;;57.50;3.07;;;;;;;;;;5073553;28;20867;-70
2023/05/28 04:56:38;;;;;;;57.50;2.80;;;;;;;;;;5073345;28;21006;-70
2023/05/28 04:59:09;;;;;;;58.40;3.47;;;;;;;;;;5072769;28;20578;-70
2023/05/28 05:01:36;;;;;;;57.40;2.70;;;;;;;;;;5073125;28;20871;-70
2023/05/28 05:04:03;;;;;;;57.53;2.60;;;;;;;;;;5073420;28;20451;-70
2023/05/28 05:06:31;;;;;;;57.40;2.40;;;;;;;;;;5073319;28;20451;-70
2023/05/28 05:08:59;;;;;;;57.60;2.57;;;;;;;;;;5072630;28;20440;-69
2023/05/28 05:11:26;;;;;;;57.47;2.50;;;;;;;;;;5073077;28;20471;-70
2023/05/28 05:13:54;;;;;;;57.50;2.50;;;;;;;;;;5073349;28;20520;-69
2023/05/28 05:16:21;;;;;;;57.40;2.60;;;;;;;;;;5072802;28;20448;-69
2023/05/28 05:18:48;;;;;;;57.50;2.73;;;;;;;;;;5072015;28;20459;-70
2023/05/28 05:21:15;;;;;;;57.17;2.50;;;;;;;;;;5071941;28;20468;-70
2023/05/28 05:23:42;;;;;;;57.70;3.00;;;;;;;;;;5072864;28;20459;-69
2023/05/28 05:26:12;;;;;;;57.53;2.80;;;;;;;;;;5072806;28;20817;-70
2023/05/28 05:28:41;;;;;;;57.37;2.80;;;;;;;;;;5071904;28;20452;-69
2023/05/28 05:31:08;;;;;;;57.17;2.63;;;;;;;;;;5073156;28;20963;-70
2023/05/28 05:33:36;;;;;;;57.60;2.90;;;;;;;;;;5072817;28;20455;-70
2023/05/28 05:36:03;;;;;;;59.33;4.20;;;;;;;;;;5072779;28;20538;-70
2023/05/28 05:38:31;;;;;;;57.33;2.70;;;;;;;;;;5072136;28;20447;-70
2023/05/28 05:40:58;;;;;;;58.40;3.37;;;;;;;;;;5072515;28;20506;-70
2023/05/28 05:43:27;;;;;;;57.37;2.40;;;;;;;;;;5072549;28;20451;-70
2023/05/28 05:45:54;;;;;;;57.40;2.50;;;;;;;;;;5072586;28;20443;-69
2023/05/28 05:48:21;;;;;;;57.50;2.80;;;;;;;;;;5072550;28;20447;-70
2023/05/28 05:50:49;;;;;;;57.37;2.83;;;;;;;;;;5071493;28;21011;-70
2023/05/28 05:53:16;;;;;;;57.47;2.80;;;;;;;;;;5072274;28;20455;-70
2023/05/28 05:55:44;;;;;;;59.67;2.60;;;;;;;;;;5072400;28;20479;-70
2023/05/28 05:58:11;;;;;;;58.40;2.77;;;;;;;;;;5072337;28;20451;-70
2023/05/28 06:00:40;;;;;;;57.20;2.93;;;;;;;;;;5071527;28;20589;-70
2023/05/28 06:03:07;;;;;;;58.07;2.90;;;;;;;;;;5072179;28;20469;-70
2023/05/28 06:05:34;;;;;;;57.27;2.73;;;;;;;;;;5071942;28;20451;-70
2023/05/28 06:08:02;;;;;;;57.37;2.53;;;;;;;;;;5071817;28;20944;-70
2023/05/28 06:10:29;;;;;;;57.10;2.50;;;;;;;;;;5071060;28;20475;-70
2023/05/28 06:13:00;;;;;;;57.07;2.23;;;;;;;;;;5071718;28;21003;-70
2023/05/28 06:15:27;;;;;;;58.73;3.77;;;;;;;;;;5071837;28;20900;-70
2023/05/28 06:17:56;;;;;;;57.20;2.43;;;;;;;;;;5071887;28;20451;-70
2023/05/28 06:20:23;;;;;;;57.37;2.50;;;;;;;;;;5070929;28;20502;-70
2023/05/28 06:22:50;;;;;;;57.27;2.90;;;;;;;;;;5071832;28;20993;-70
2023/05/28 06:25:18;;;;;;;57.30;2.80;;;;;;;;;;5071497;28;20466;-70
2023/05/28 06:27:45;;;;;;;57.17;2.60;;;;;;;;;;5071762;28;20798;-70
2023/05/28 06:30:12;;;;;;;57.30;2.77;;;;;;;;;;5071091;28;20442;-70
2023/05/28 06:32:39;;;;;;;57.90;2.87;;;;;;;;;;5071357;28;20569;-70
2023/05/28 06:35:08;;;;;;;57.60;2.90;;;;;;;;;;5071468;28;20528;-70
2023/05/28 06:37:36;;;;;;;57.07;2.50;;;;;;;;;;5071528;28;20451;-70
2023/05/28 06:40:05;;;;;;;60.93;3.47;;;;;;;;;;5070559;28;21032;-71
2023/05/28 06:42:33;;;;;;;57.17;2.43;;;;;;;;;;5071329;28;20521;-70
2023/05/28 06:45:00;;;;;;;58.20;2.83;;;;;;;;;;5071434;28;20466;-69
2023/05/28 06:47:27;;;;;;;57.37;2.80;;;;;;;;;;5071356;28;20439;-72
2023/05/28 06:49:55;;;;;;;57.03;2.33;;;;;;;;;;5070446;28;20947;-69
2023/05/28 06:52:23;;;;;;;57.77;3.03;;;;;;;;;;5071228;28;20991;-69
2023/05/28 06:54:50;;;;;;;57.50;2.50;;;;;;;;;;5071516;28;20886;-70
2023/05/28 06:57:17;;;;;;;57.47;2.70;;;;;;;;;;5071134;28;20454;-69
2023/05/28 06:59:45;;;;;;;57.27;2.23;;;;;;;;;;5070443;28;20474;-69
2023/05/28 07:02:12;;;;;;;57.10;2.20;;;;;;;;;;5071196;28;20853;-70
2023/05/28 07:04:40;;;;;;;57.67;2.50;;;;;;;;;;5070985;28;20443;-70
2023/05/28 07:07:07;;;;;;;57.50;3.13;;;;;;;;;;5071323;28;20451;-70
2023/05/28 07:09:35;;;;;;;57.20;2.50;;;;;;;;;;5070302;28;21002;-70
2023/05/28 07:12:03;;;;;;;58.87;3.60;;;;;;;;;;5070976;28;20482;-69
2023/05/28 07:14:30;;;;;;;59.23;2.90;;;;;;;;;;5071316;28;20486;-69
2023/05/28 07:16:57;;;;;;;57.27;2.87;;;;;;;;;;5071269;28;20839;-69
2023/05/28 07:19:24;;;;;;;57.80;2.50;;;;;;;;;;5070266;28;20454;-70
2023/05/28 07:21:51;;;;;;;57.03;2.43;;;;;;;;;;5070821;28;21067;-70
2023/05/28 07:24:18;;;;;;;57.27;2.47;;;;;;;;;;5070731;28;20463;-70
2023/05/28 07:26:47;;;;;;;57.27;2.40;;;;;;;;;;5071022;28;20450;-69
2023/05/28 07:29:16;;;;;;;58.00;2.60;;;;;;;;;;5070126;28;20455;-70
2023/05/28 07:31:43;;;;;;;57.17;2.50;;;;;;;;;;5071047;28;20475;-70
2023/05/28 07:34:10;;;;;;;57.57;3.10;;;;;;;;;;5070819;28;20950;-70
2023/05/28 07:36:38;;;;;;;57.17;2.67;;;;;;;;;;5071023;28;20457;-70
2023/05/28 07:39:05;;;;;;;57.17;2.40;;;;;;;;;;5070079;28;20443;-70
2023/05/28 07:41:34;;;;;;;61.00;2.70;;;;;;;;;;5070697;28;20497;-70
2023/05/28 07:44:03;;;;;;;57.90;2.57;;;;;;;;;;5070795;28;20812;-70
2023/05/28 07:46:30;;;;;;;57.13;2.50;;;;;;;;;;5074514;28;21018;-70
2023/05/28 07:48:57;;;;;;;57.27;2.30;;;;;;;;;;5073739;28;20943;-70
2023/05/28 07:51:25;;;;;;;57.30;2.60;;;;;;;;;;5074660;28;20459;-69
2023/05/28 07:53:53;;;;;;;57.50;2.50;;;;;;;;;;5075093;28;20926;-70
2023/05/28 07:56:21;;;;;;;57.20;2.47;;;;;;;;;;5074730;28;20459;-70
2023/05/28 07:58:49;;;;;;;58.77;3.10;;;;;;;;;;5073785;28;20453;-69
2023/05/28 08:01:17;;;;;;;57.70;2.50;;;;;;;;;;5074408;28;20490;-70
2023/05/28 08:03:48;;;;;;;57.60;3.03;;;;;;;;;;5074239;28;20948;-69
2023/05/28 08:06:15;;;;;;;57.73;2.70;;;;;;;;;;5074409;28;20451;-70
2023/05/28 08:08:42;;;;;;;57.57;2.80;;;;;;;;;;5073570;28;20450;-70
2023/05/28 08:11:10;;;;;;;58.10;3.23;;;;;;;;;;5074023;28;20475;-70
2023/05/28 08:13:37;;;;;;;58.67;4.00;;;;;;;;;;5074055;28;20463;-70
2023/05/28 08:16:05;;;;;;;58.10;3.03;;;;;;;;;;5074315;28;20451;-70
2023/05/28 08:18:36;;;;;;;57.40;2.50;;;;;;;;;;5073477;28;20951;-69
2023/05/28 08:21:03;;;;;;;57.97;3.40;;;;;;;;;;5073915;28;20475;-70
2023/05/28 08:23:34;;;;;;;56.67;2.30;;;;;;;;;;5074026;28;20458;-70
2023/05/28 08:26:01;;;;;;;57.47;2.87;;;;;;;;;;5074053;28;20435;-70
2023/05/28 08:28:28;;;;;;;57.57;2.40;;;;;;;;;;5073921;28;20455;-70
2023/05/28 08:30:55;;;;;;;56.87;2.20;;;;;;;;;;5073270;28;20448;-70
2023/05/28 08:33:22;;;;;;;57.90;2.70;;;;;;;;;;5074051;28;20454;-70
2023/05/28 08:35:51;;;;;;;57.37;2.40;;;;;;;;;;5073735;28;20511;-70
2023/05/28 08:38:18;;;;;;;57.27;2.53;;;;;;;;;;5073780;28;20819;-70
2023/05/28 08:40:48;;;;;;;57.37;2.70;;;;;;;;;;5073119;28;20483;-70
2023/05/28 08:43:15;;;;;;;57.03;2.23;;;;;;;;;;5073823;28;20447;-70
2023/05/28 08:45:43;;;;;;;57.20;2.90;;;;;;;;;;5073954;28;20944;-70
2023/05/28 08:48:10;;;;;;;56.70;2.10;;;;;;;;;;5073684;28;20453;-70
2023/05/28 08:50:39;;;;;;;57.40;2.30;;;;;;;;;;5072862;28;20448;-70
2023/05/28 08:53:11;;;;;;;58.23;2.50;;;;;;;;;;5073245;28;20972;-70
2023/05/28 08:55:38;;;;;;;57.20;2.17;;;;;;;;;;5073577;28;20451;-70
2023/05/28 08:58:05;;;;;;;56.87;2.63;;;;;;;;;;5073370;28;20455;-70
2023/05/28 09:00:32;;;;;;;57.77;2.27;;;;;;;;;;5072544;28;20505;-70
2023/05/28 09:02:59;;;;;;;56.73;1.90;;;;;;;;;;5073393;28;20471;-70
2023/05/28 09:05:26;;;;;;;57.37;2.90;;;;;;;;;;5073080;28;20452;-70
2023/05/28 09:07:53;;;;;;;56.57;2.20;;;;;;;;;;5073113;28;20435;-70
2023/05/28 09:10:23;;;;;;;57.60;2.83;;;;;;;;;;5072568;28;20440;-70
2023/05/28 09:13:00;;;;;;;57.20;2.80;;;;;;;;;;5072953;28;20475;-70
2023/05/28 09:15:27;;;;;;;57.67;3.20;;;;;;;;;;5072945;28;20457;-70
2023/05/28 09:17:54;;;;;;;58.23;2.80;;;;;;;;;;5073326;28;20452;-68
2023/05/28 09:20:22;;;;;;;57.20;2.87;;;;;;;;;;5072352;28;20501;-68
2023/05/28 09:22:58;;;;;;;57.07;2.50;;;;;;;;;;5073393;28;20554;-68
2023/05/28 09:25:26;;;;;;;57.40;2.57;;;;;;;;;;5072878;28;20877;-68
2023/05/28 09:27:54;;;;;;;59.90;2.60;;;;;;;;;;5073082;28;20454;-70
2023/05/28 09:30:22;;;;;;;56.87;2.40;;;;;;;;;;5071957;28;20447;-68
2023/05/28 09:32:56;;;;;;;58.27;2.87;;;;;;;;;;5072895;28;20834;-68
2023/05/28 09:35:26;;;;;;;57.50;2.67;;;;;;;;;;5072895;28;20477;-68
2023/05/28 09:38:00;;;;;;;57.63;3.70;;;;;;;;;;5072817;28;20501;-68
2023/05/28 09:40:29;;;;;;;57.07;2.27;;;;;;;;;;5071915;28;20490;-68
2023/05/28 09:42:57;;;;;;;57.40;2.63;;;;;;;;;;5072211;28;20517;-68
2023/05/28 09:45:25;;;;;;;57.27;2.40;;;;;;;;;;5072555;28;20491;-68
2023/05/28 09:47:52;;;;;;;57.40;2.60;;;;;;;;;;5072527;28;20870;-68
2023/05/28 09:50:19;;;;;;;56.87;2.20;;;;;;;;;;5071280;28;20451;-68
2023/05/28 09:52:47;;;;;;;56.10;2.20;;;;;;;;;;5071924;28;21037;-68
2023/05/28 09:55:15;;;;;;;56.83;2.50;;;;;;;;;;5072204;28;20457;-68
2023/05/28 09:57:46;;;;;;;57.80;2.10;;;;;;;;;;5072306;28;20454;-68
2023/05/28 10:00:21;;;;;;;58.90;2.90;;;;;;;;;;5071215;28;20447;-71
2023/05/28 10:02:54;;;;;;;57.43;2.20;;;;;;;;;;5071932;28;20467;-71
2023/05/28 10:05:22;;;;;;;58.70;2.47;;;;;;;;;;5072093;28;20494;-71
2023/05/28 10:07:50;;;;;;;57.03;2.37;;;;;;;;;;5071434;28;20453;-71
2023/05/28 10:10:17;;;;;;;57.23;2.80;;;;;;;;;;5071153;28;20948;-71
2023/05/28 10:12:46;;;;;;;59.37;3.50;;;;;;;;;;5072234;28;20517;-71
2023/05/28 10:15:13;;;;;;;57.30;3.47;;;;;;;;;;5071680;28;20455;-68
2023/05/28 10:17:41;;;;;;;57.10;2.43;;;;;;;;;;5071877;28;20466;-68
2023/05/28 10:20:10;;;;;;;57.20;2.30;;;;;;;;;;5070932;28;20447;-69
2023/05/28 10:22:37;;;;;;;56.70;2.20;;;;;;;;;;5071340;28;20864;-68
2023/05/28 10:25:07;;;;;;;56.60;1.93;;;;;;;;;;5071518;28;20470;-69
2023/05/28 10:27:36;;;;;;;56.37;2.00;;;;;;;;;;5071666;28;20435;-69
2023/05/28 10:30:06;;;;;;;56.90;2.20;;;;;;;;;;5070848;28;20494;-69
2023/05/28 10:32:40;;;;;;;56.70;1.90;;;;;;;;;;5071182;28;20555;-69
2023/05/28 10:35:08;;;;;;;58.50;3.33;;;;;;;;;;5071392;28;20451;-69
2023/05/28 10:37:36;;;;;;;56.70;2.47;;;;;;;;;;5071366;28;20936;-69
2023/05/28 10:40:03;;;;;;;57.17;2.50;;;;;;;;;;5070871;28;20455;-69
2023/05/28 10:42:31;;;;;;;56.50;2.40;;;;;;;;;;5071532;28;20584;-69
2023/05/28 10:45:10;;;;;;;56.40;1.93;;;;;;;;;;5071582;28;20453;-69
2023/05/28 10:47:37;;;;;;;56.60;2.47;;;;;;;;;;5071186;28;20451;-69
2023/05/28 10:50:14;;;;;;;56.57;2.27;;;;;;;;;;5070810;28;20443;-69
2023/05/28 10:52:42;;;;;;;57.73;2.07;;;;;;;;;;5071449;28;20467;-69
2023/05/28 10:55:10;;;;;;;55.77;1.90;;;;;;;;;;5071196;28;20455;-69
2023/05/28 10:57:45;;;;;;;57.40;3.00;;;;;;;;;;5071663;28;20454;-69
2023/05/28 11:00:14;;;;;;;62.87;4.60;;;;;;;;;;5070239;28;20454;-69
2023/05/28 11:02:42;;;;;;;56.97;2.90;;;;;;;;;;5070967;28;20483;-69
2023/05/28 11:05:09;;;;;;;55.97;2.10;;;;;;;;;;5071086;28;20487;-69
2023/05/28 11:07:37;;;;;;;56.00;1.80;;;;;;;;;;5071201;28;20447;-69
2023/05/28 11:10:04;;;;;;;55.67;2.00;;;;;;;;;;5070323;28;20820;-69
2023/05/28 11:12:32;;;;;;;56.00;2.00;;;;;;;;;;5070823;28;20905;-69
2023/05/28 11:14:59;;;;;;;56.47;2.27;;;;;;;;;;5070997;28;20448;-69
2023/05/28 11:17:28;;;;;;;55.67;1.80;;;;;;;;;;5071218;28;20538;-69
2023/05/28 11:19:55;;;;;;;55.63;1.83;;;;;;;;;;5072102;28;20454;-69
2023/05/28 11:22:23;;;;;;;56.10;2.10;;;;;;;;;;5075005;28;21015;-69
2023/05/28 11:24:52;;;;;;;55.77;1.80;;;;;;;;;;5075086;28;20458;-69
2023/05/28 11:27:19;;;;;;;55.77;1.80;;;;;;;;;;5075258;28;20458;-69
2023/05/28 11:29:47;;;;;;;55.90;2.20;;;;;;;;;;5074534;28;20954;-69
2023/05/28 11:32:14;;;;;;;56.23;2.07;;;;;;;;;;5075201;28;20498;-69
2023/05/28 11:34:42;;;;;;;55.87;2.17;;;;;;;;;;5075092;28;20451;-69
2023/05/28 11:37:09;;;;;;;56.40;2.80;;;;;;;;;;5074899;28;20453;-69
2023/05/28 11:39:39;;;;;;;57.07;2.10;;;;;;;;;;5073916;28;20485;-69
2023/05/28 11:42:09;;;;;;;57.90;2.30;;;;;;;;;;5074858;28;20493;-69
2023/05/28 11:44:36;;;;;;;55.90;1.70;;;;;;;;;;5074686;28;20835;-69
2023/05/28 11:47:03;;;;;;;56.20;2.30;;;;;;;;;;5074970;28;20448;-69
2023/05/28 11:49:30;;;;;;;56.20;2.53;;;;;;;;;;5073979;28;20546;-69
2023/05/28 11:51:59;;;;;;;55.87;2.20;;;;;;;;;;5074446;28;20471;-69
2023/05/28 11:54:26;;;;;;;55.90;1.97;;;;;;;;;;5074431;28;20540;-69
2023/05/28 11:56:53;;;;;;;56.93;2.47;;;;;;;;;;5074644;28;20815;-70
2023/05/28 11:59:25;;;;;;;56.70;2.60;;;;;;;;;;5074151;28;20457;-70
2023/05/28 12:01:53;;;;;;;55.60;1.90;;;;;;;;;;5074350;28;20487;-69
2023/05/28 12:04:23;;;;;;;55.73;1.90;;;;;;;;;;5074331;28;20443;-70
2023/05/28 12:06:51;;;;;;;56.50;2.17;;;;;;;;;;5074424;28;20432;-69
2023/05/28 12:09:20;;;;;;;55.77;1.97;;;;;;;;;;5073743;28;20455;-70
2023/05/28 12:12:02;;;;;;;56.27;2.70;;;;;;;;;;5074113;28;20463;-69
2023/05/28 12:14:31;;;;;;;55.60;2.07;;;;;;;;;;5074202;28;20435;-70
2023/05/28 12:17:05;;;;;;;55.73;2.10;;;;;;;;;;5074014;28;20956;-69
2023/05/28 12:19:33;;;;;;;56.23;2.10;;;;;;;;;;5073607;28;20484;-70
2023/05/28 12:22:00;;;;;;;56.27;1.70;;;;;;;;;;5073990;28;20493;-69
2023/05/28 12:24:29;;;;;;;55.50;1.57;;;;;;;;;;5073970;28;20564;-70
2023/05/28 12:26:56;;;;;;;56.40;2.03;;;;;;;;;;5074089;28;20443;-70
2023/05/28 12:29:24;;;;;;;55.30;1.93;;;;;;;;;;5073134;28;20458;-69
2023/05/28 12:31:58;;;;;;;55.70;2.20;;;;;;;;;;5073392;28;20463;-70
2023/05/28 12:34:25;;;;;;;55.83;2.43;;;;;;;;;;5073985;28;20442;-69
2023/05/28 12:36:52;;;;;;;57.07;3.10;;;;;;;;;;5073679;28;21022;-69
2023/05/28 12:39:20;;;;;;;55.60;1.77;;;;;;;;;;5073166;28;20458;-70
2023/05/28 12:41:49;;;;;;;55.60;1.80;;;;;;;;;;5073414;28;20493;-69
2023/05/28 12:44:16;;;;;;;55.77;2.00;;;;;;;;;;5073476;28;20447;-69
2023/05/28 12:46:43;;;;;;;55.70;1.93;;;;;;;;;;5073851;28;20881;-70
2023/05/28 12:49:11;;;;;;;56.20;2.50;;;;;;;;;;5073038;28;20534;-70
2023/05/28 12:51:38;;;;;;;55.90;1.90;;;;;;;;;;5073402;28;20468;-70
2023/05/28 12:54:06;;;;;;;57.17;2.63;;;;;;;;;;5073695;28;20462;-70
2023/05/28 12:56:33;;;;;;;55.50;2.00;;;;;;;;;;5073356;28;20954;-70
2023/05/28 12:59:01;;;;;;;55.60;2.47;;;;;;;;;;5072765;28;20805;-70
2023/05/28 13:01:28;;;;;;;56.10;2.27;;;;;;;;;;5073360;28;20501;-70
2023/05/28 13:03:55;;;;;;;56.20;2.50;;;;;;;;;;5073378;28;20444;-69
2023/05/28 13:06:23;;;;;;;56.13;2.47;;;;;;;;;;5073244;28;20455;-69
2023/05/28 13:08:50;;;;;;;56.40;2.53;;;;;;;;;;5072451;28;20547;-69
2023/05/28 13:11:17;;;;;;;56.20;2.37;;;;;;;;;;5072927;28;20470;-69
2023/05/28 13:13:44;;;;;;;55.67;1.90;;;;;;;;;;5073523;28;20449;-70
2023/05/28 13:16:13;;;;;;;55.60;1.87;;;;;;;;;;5073261;28;20443;-70
2023/05/28 13:18:40;;;;;;;56.43;2.40;;;;;;;;;;5072223;28;20978;-70
2023/05/28 13:21:08;;;;;;;56.00;2.50;;;;;;;;;;5073183;28;20463;-70
2023/05/28 13:23:35;;;;;;;56.27;2.23;;;;;;;;;;5072776;28;20483;-70
2023/05/28 13:26:02;;;;;;;56.00;2.90;;;;;;;;;;5072764;28;20470;-70
2023/05/28 13:28:29;;;;;;;55.80;2.23;;;;;;;;;;5072570;28;20948;-70
2023/05/28 13:30:56;;;;;;;55.60;2.00;;;;;;;;;;5072815;28;20479;-70
2023/05/28 13:33:25;;;;;;;55.30;2.37;;;;;;;;;;5072925;28;20447;-70
2023/05/28 13:35:52;;;;;;;55.07;1.97;;;;;;;;;;5072720;28;20878;-70
2023/05/28 13:38:19;;;;;;;56.07;2.00;;;;;;;;;;5072360;28;20453;-70
2023/05/28 13:40:46;;;;;;;55.87;2.33;;;;;;;;;;5072029;28;20456;-70
2023/05/28 13:43:14;;;;;;;56.07;2.40;;;;;;;;;;5071791;28;20489;-70
2023/05/28 13:45:42;;;;;;;55.80;2.20;;;;;;;;;;5072511;28;20871;-70
2023/05/28 13:48:09;;;;;;;55.53;2.40;;;;;;;;;;5072496;28;20470;-70
2023/05/28 13:50:37;;;;;;;56.17;2.67;;;;;;;;;;5071703;28;20454;-70
2023/05/28 13:53:04;;;;;;;55.47;2.00;;;;;;;;;;5072045;28;20460;-70
2023/05/28 13:55:31;;;;;;;55.67;2.20;;;;;;;;;;5072402;28;20550;-70
2023/05/28 13:57:59;;;;;;;55.67;2.33;;;;;;;;;;5072264;28;20447;-70
2023/05/28 14:00:26;;;;;;;57.50;2.53;;;;;;;;;;5071399;28;20970;-70
2023/05/28 14:02:53;;;;;;;55.93;2.17;;;;;;;;;;5072009;28;20482;-70
2023/05/28 14:05:20;;;;;;;54.87;2.03;;;;;;;;;;5071946;28;20502;-70
2023/05/28 14:07:48;;;;;;;56.60;2.10;;;;;;;;;;5072197;28;20443;-70
2023/05/28 14:10:15;;;;;;;55.70;2.30;;;;;;;;;;5071323;28;20455;-70
2023/05/28 14:12:43;;;;;;;55.40;2.40;;;;;;;;;;5071857;28;20491;-70
2023/05/28 14:15:10;;;;;;;55.50;2.40;;;;;;;;;;5071788;28;20463;-70
2023/05/28 14:17:37;;;;;;;56.10;3.00;;;;;;;;;;5072100;28;20866;-70
2023/05/28 14:20:05;;;;;;;56.40;2.70;;;;;;;;;;5071325;28;20454;-70
2023/05/28 14:22:32;;;;;;;55.70;2.20;;;;;;;;;;5071948;28;20493;-70
2023/05/28 14:25:01;;;;;;;55.60;2.00;;;;;;;;;;5071507;28;20467;-69
2023/05/28 14:27:28;;;;;;;55.80;2.03;;;;;;;;;;5071573;28;20452;-70
2023/05/28 14:29:56;;;;;;;55.87;2.53;;;;;;;;;;5070944;28;20874;-70
2023/05/28 14:32:23;;;;;;;56.87;2.97;;;;;;;;;;5071403;28;20491;-70
2023/05/28 14:34:50;;;;;;;58.53;2.83;;;;;;;;;;5071395;28;20474;-70